Time;durP1;ratioP1;P1;durP2;ratioP2;P2;SDS_P1;SDS_P2;PMS_P1;PMS_P2;Temp;Humidity;BMP_temperature;BMP_pressure;BME280_temperature;BME280_humidity;BME280_pressure;Samples;Min_cycle;Max_cycle;Signal;HPM_P1;HPM_P2
2023/01/18 00:01:40;;;;;;;12.15;4.38;;;;;;;;;;5060790;28;20417;-77
2023/01/18 00:04:06;;;;;;;10.18;4.88;;;;;;;;;;5059979;28;20025;-77
2023/01/18 00:06:32;;;;;;;9.05;5.00;;;;;;;;;;5051208;28;20029;-77
2023/01/18 00:08:58;;;;;;;9.95;4.85;;;;;;;;;;5055531;28;20024;-76
2023/01/18 00:11:23;;;;;;;8.75;4.57;;;;;;;;;;5057055;28;20045;-76
2023/01/18 00:13:53;;;;;;;10.77;5.15;;;;;;;;;;5066823;28;20042;-76
2023/01/18 00:16:22;;;;;;;9.63;4.55;;;;;;;;;;5053209;28;20020;-77
2023/01/18 00:18:55;;;;;;;8.05;4.70;;;;;;;;;;5060815;28;20040;-76
2023/01/18 00:21:21;;;;;;;11.93;5.47;;;;;;;;;;5052772;28;20040;-76
2023/01/18 00:23:47;;;;;;;8.95;4.70;;;;;;;;;;5049368;28;20353;-76
2023/01/18 00:26:13;;;;;;;10.95;5.20;;;;;;;;;;5054996;28;20105;-76
2023/01/18 00:28:40;;;;;;;8.02;4.22;;;;;;;;;;5057183;28;20732;-76
2023/01/18 00:31:10;;;;;;;11.55;4.88;;;;;;;;;;5050119;28;20033;-77
2023/01/18 00:33:36;;;;;;;9.05;4.72;;;;;;;;;;5055503;28;20082;-76
2023/01/18 00:36:02;;;;;;;10.23;4.80;;;;;;;;;;5052338;28;20029;-76
2023/01/18 00:38:29;;;;;;;9.70;5.07;;;;;;;;;;5049924;28;20047;-76
2023/01/18 00:40:55;;;;;;;11.93;4.78;;;;;;;;;;5054015;28;20128;-76
2023/01/18 00:43:39;;;;;;;13.32;5.18;;;;;;;;;;5055829;28;20079;-76
2023/01/18 00:46:05;;;;;;;10.48;5.20;;;;;;;;;;5047882;28;20021;-76
2023/01/18 00:48:32;;;;;;;9.73;5.05;;;;;;;;;;5053765;28;20029;-76
2023/01/18 00:51:01;;;;;;;10.65;5.07;;;;;;;;;;5056252;28;20025;-76
2023/01/18 00:53:27;;;;;;;9.20;4.70;;;;;;;;;;5052185;28;20032;-76
2023/01/18 00:55:53;;;;;;;9.32;4.53;;;;;;;;;;5051256;28;20078;-76
2023/01/18 00:58:22;;;;;;;9.23;4.65;;;;;;;;;;5044487;28;20025;-76
2023/01/18 01:00:50;;;;;;;12.50;5.32;;;;;;;;;;5056512;28;20027;-77
2023/01/18 01:03:16;;;;;;;9.20;4.93;;;;;;;;;;5052927;28;20021;-75
2023/01/18 01:08:27;;;;;;;7.70;4.30;;;;;;;;;;5057557;28;20032;-75
2023/01/18 01:11:03;;;;;;;9.60;4.75;;;;;;;;;;5047098;28;20021;-76
2023/01/18 01:27:12;;;;;;;6.63;4.13;;;;;;;;;;5058009;28;20072;-76
2023/01/18 01:29:38;;;;;;;8.98;4.40;;;;;;;;;;5054208;28;20052;-76
2023/01/18 01:32:05;;;;;;;7.50;4.75;;;;;;;;;;5054057;28;20023;-76
2023/01/18 01:34:31;;;;;;;8.80;4.75;;;;;;;;;;5051728;28;20046;-75
2023/01/18 01:36:57;;;;;;;8.70;4.60;;;;;;;;;;5048891;28;21510;-76
2023/01/18 01:39:23;;;;;;;12.68;4.43;;;;;;;;;;5047921;28;20025;-76
2023/01/18 01:41:50;;;;;;;11.07;4.75;;;;;;;;;;5050169;28;20467;-75
2023/01/18 01:44:26;;;;;;;11.75;4.70;;;;;;;;;;5054621;28;20020;-76
2023/01/18 01:46:58;;;;;;;7.80;4.75;;;;;;;;;;5048233;28;20431;-75
2023/01/18 01:49:25;;;;;;;11.02;4.90;;;;;;;;;;5055622;28;20033;-76
2023/01/18 01:51:53;;;;;;;9.27;4.38;;;;;;;;;;5053540;28;20033;-75
2023/01/18 01:54:21;;;;;;;8.23;4.38;;;;;;;;;;5057427;28;20024;-76
2023/01/18 01:56:48;;;;;;;7.25;3.90;;;;;;;;;;5055004;28;20044;-76
2023/01/18 01:59:15;;;;;;;8.88;4.40;;;;;;;;;;5058213;28;20025;-76
2023/01/18 02:01:42;;;;;;;8.05;4.20;;;;;;;;;;5050232;28;20029;-77
2023/01/18 02:04:09;;;;;;;9.68;4.25;;;;;;;;;;5052572;28;20506;-76
2023/01/18 02:06:36;;;;;;;8.93;4.70;;;;;;;;;;5051173;28;20024;-76
2023/01/18 02:09:07;;;;;;;9.65;4.75;;;;;;;;;;5060710;28;20032;-76
2023/01/18 02:11:33;;;;;;;7.13;4.50;;;;;;;;;;5048056;28;20052;-76
2023/01/18 02:14:03;;;;;;;8.93;5.10;;;;;;;;;;5060297;28;20088;-76
2023/01/18 02:16:52;;;;;;;8.20;4.60;;;;;;;;;;5051492;28;20032;-76
2023/01/18 02:19:34;;;;;;;11.63;5.13;;;;;;;;;;5063848;28;20021;-77
2023/01/18 02:22:17;;;;;;;7.47;4.40;;;;;;;;;;5056050;28;20047;-77
2023/01/18 02:24:53;;;;;;;8.95;4.88;;;;;;;;;;5067026;28;20051;-76
2023/01/18 02:27:23;;;;;;;6.65;4.40;;;;;;;;;;5068030;28;20024;-77
2023/01/18 02:30:03;;;;;;;8.55;4.53;;;;;;;;;;5059649;28;20511;-77
2023/01/18 02:32:45;;;;;;;7.57;4.20;;;;;;;;;;5053871;28;20029;-77
2023/01/18 02:35:13;;;;;;;6.03;3.97;;;;;;;;;;5066113;28;20029;-76
2023/01/18 02:38:00;;;;;;;8.48;4.70;;;;;;;;;;5060744;28;20029;-77
2023/01/18 02:40:33;;;;;;;7.32;4.25;;;;;;;;;;5066534;28;20044;-76
2023/01/18 02:48:37;;;;;;;8.23;4.10;;;;;;;;;;5056234;28;20081;-76
2023/01/18 02:51:03;;;;;;;7.07;3.70;;;;;;;;;;5053497;28;20464;-77
2023/01/18 02:53:30;;;;;;;7.97;3.88;;;;;;;;;;5055050;28;20468;-76
2023/01/18 02:56:01;;;;;;;7.80;4.45;;;;;;;;;;5061595;28;20620;-76
2023/01/18 02:58:38;;;;;;;7.03;3.63;;;;;;;;;;5058233;28;20111;-76
2023/01/18 03:01:06;;;;;;;8.68;4.03;;;;;;;;;;5055746;28;20021;-76
2023/01/18 03:03:33;;;;;;;7.88;3.88;;;;;;;;;;5060103;28;20100;-76
2023/01/18 03:06:00;;;;;;;7.60;4.03;;;;;;;;;;5059971;28;20231;-76
2023/01/18 03:08:35;;;;;;;8.75;4.25;;;;;;;;;;5064333;28;20055;-76
2023/01/18 03:11:06;;;;;;;7.50;3.80;;;;;;;;;;5062181;28;20532;-76
2023/01/18 03:13:37;;;;;;;6.70;3.88;;;;;;;;;;5058535;28;20045;-76
2023/01/18 03:16:06;;;;;;;7.35;3.38;;;;;;;;;;5056823;28;20064;-75
2023/01/18 03:19:00;;;;;;;8.95;4.20;;;;;;;;;;5061974;28;20469;-76
2023/01/18 03:21:41;;;;;;;5.53;3.33;;;;;;;;;;5059917;28;20027;-77
2023/01/18 03:24:08;;;;;;;7.65;3.97;;;;;;;;;;5054654;28;20032;-76
2023/01/18 03:26:36;;;;;;;6.50;3.17;;;;;;;;;;5068172;28;20430;-76
2023/01/18 03:34:37;;;;;;;6.88;3.55;;;;;;;;;;5049528;28;20800;-76
2023/01/18 03:37:07;;;;;;;7.43;3.75;;;;;;;;;;5053122;28;20036;-76
2023/01/18 03:39:53;;;;;;;5.85;3.28;;;;;;;;;;5061578;28;20514;-76
2023/01/18 03:42:22;;;;;;;6.25;3.10;;;;;;;;;;5061991;28;20517;-76
2023/01/18 03:44:53;;;;;;;5.00;3.53;;;;;;;;;;5053607;28;20048;-76
2023/01/18 03:47:20;;;;;;;6.85;3.75;;;;;;;;;;5054033;28;20024;-76
2023/01/18 03:49:45;;;;;;;9.98;3.53;;;;;;;;;;5067278;28;20059;-76
2023/01/18 03:52:15;;;;;;;5.80;3.22;;;;;;;;;;5064335;28;20024;-76
2023/01/18 03:54:46;;;;;;;6.38;3.65;;;;;;;;;;5056108;28;20492;-76
2023/01/18 03:57:18;;;;;;;8.40;3.25;;;;;;;;;;5062875;28;20036;-77
2023/01/18 03:59:45;;;;;;;8.43;3.58;;;;;;;;;;5057652;28;20035;-76
2023/01/18 04:02:12;;;;;;;6.65;3.42;;;;;;;;;;5055432;28;20161;-76
2023/01/18 04:04:38;;;;;;;6.43;3.22;;;;;;;;;;5064713;28;20089;-76
2023/01/18 04:07:04;;;;;;;5.90;2.85;;;;;;;;;;5065478;28;20020;-77
2023/01/18 04:09:30;;;;;;;6.63;3.22;;;;;;;;;;5059029;28;20027;-77
2023/01/18 04:11:56;;;;;;;4.85;3.20;;;;;;;;;;5056650;28;20513;-77
2023/01/18 04:14:22;;;;;;;5.43;2.90;;;;;;;;;;5067857;28;20029;-76
2023/01/18 04:16:48;;;;;;;6.13;3.22;;;;;;;;;;5056297;28;20052;-76
2023/01/18 04:19:14;;;;;;;5.70;3.38;;;;;;;;;;5064950;28;20024;-76
2023/01/18 04:21:40;;;;;;;5.53;3.28;;;;;;;;;;5059787;28;20138;-76
2023/01/18 04:24:07;;;;;;;5.95;3.50;;;;;;;;;;5060713;28;20028;-76
2023/01/18 04:26:33;;;;;;;6.75;3.25;;;;;;;;;;5063047;28;20029;-76
2023/01/18 04:28:59;;;;;;;4.40;2.88;;;;;;;;;;5060112;28;20101;-77
2023/01/18 04:31:25;;;;;;;6.22;3.42;;;;;;;;;;5051138;28;20048;-76
2023/01/18 04:33:51;;;;;;;5.97;3.42;;;;;;;;;;5061807;28;20032;-76
2023/01/18 04:36:18;;;;;;;5.10;2.90;;;;;;;;;;5057867;28;20026;-77
2023/01/18 04:38:44;;;;;;;5.13;3.17;;;;;;;;;;5059421;28;20120;-76
2023/01/18 04:41:10;;;;;;;4.88;3.20;;;;;;;;;;5055970;28;20051;-76
2023/01/18 04:43:36;;;;;;;5.13;2.88;;;;;;;;;;5061444;28;20025;-75
2023/01/18 04:46:02;;;;;;;8.38;3.13;;;;;;;;;;5051385;28;20111;-76
2023/01/18 04:48:29;;;;;;;5.43;3.20;;;;;;;;;;5054335;28;20031;-76
2023/01/18 04:50:55;;;;;;;6.70;2.83;;;;;;;;;;5054494;28;20029;-76
2023/01/18 04:53:21;;;;;;;7.75;3.63;;;;;;;;;;5054629;28;20035;-77
2023/01/18 04:55:47;;;;;;;5.78;3.03;;;;;;;;;;5053918;28;20025;-75
2023/01/18 04:58:14;;;;;;;6.80;3.17;;;;;;;;;;5055026;28;20028;-76
2023/01/18 05:00:40;;;;;;;5.40;2.90;;;;;;;;;;5055196;28;20028;-76
2023/01/18 05:03:07;;;;;;;4.53;3.00;;;;;;;;;;5059174;28;20025;-76
2023/01/18 05:05:33;;;;;;;5.40;3.10;;;;;;;;;;5051678;28;20025;-76
2023/01/18 05:07:59;;;;;;;6.72;3.05;;;;;;;;;;5067031;28;20029;-76
2023/01/18 05:10:25;;;;;;;4.65;2.72;;;;;;;;;;5054705;28;20124;-76
2023/01/18 05:12:51;;;;;;;7.20;3.17;;;;;;;;;;5059212;28;20131;-76
2023/01/18 05:15:17;;;;;;;5.47;3.22;;;;;;;;;;5058839;28;20424;-76
2023/01/18 05:17:43;;;;;;;5.38;2.90;;;;;;;;;;5055579;28;20033;-76
2023/01/18 05:20:09;;;;;;;5.47;2.80;;;;;;;;;;5054678;28;20025;-77
2023/01/18 05:22:36;;;;;;;5.55;2.72;;;;;;;;;;5051793;28;20432;-80
2023/01/18 05:25:02;;;;;;;5.70;3.00;;;;;;;;;;5051471;28;20062;-74
2023/01/18 05:27:28;;;;;;;3.97;2.88;;;;;;;;;;5053885;28;20028;-76
2023/01/18 05:29:54;;;;;;;5.32;3.20;;;;;;;;;;5052318;28;20025;-76
2023/01/18 05:32:20;;;;;;;8.10;3.05;;;;;;;;;;5058547;28;20440;-76
2023/01/18 05:34:46;;;;;;;5.88;2.83;;;;;;;;;;5062976;28;20028;-75
2023/01/18 05:37:11;;;;;;;4.30;2.63;;;;;;;;;;5061898;28;20033;-76
2023/01/18 05:39:37;;;;;;;5.78;3.13;;;;;;;;;;5059472;28;20025;-75
2023/01/18 05:42:04;;;;;;;5.45;3.17;;;;;;;;;;5065008;28;20025;-76
2023/01/18 05:44:30;;;;;;;4.57;2.78;;;;;;;;;;5058501;28;20027;-76
2023/01/18 05:46:57;;;;;;;4.05;2.58;;;;;;;;;;5059671;28;20020;-76
2023/01/18 05:49:23;;;;;;;4.53;2.85;;;;;;;;;;5060319;28;20028;-74
2023/01/18 05:51:49;;;;;;;7.05;3.10;;;;;;;;;;5052466;28;20448;-74
2023/01/18 05:54:15;;;;;;;3.92;2.70;;;;;;;;;;5052505;28;20167;-74
2023/01/18 05:56:43;;;;;;;4.05;2.75;;;;;;;;;;5056728;28;20044;-74
2023/01/18 05:59:09;;;;;;;4.45;2.92;;;;;;;;;;5064869;28;20017;-75
2023/01/18 06:01:35;;;;;;;5.25;2.65;;;;;;;;;;5053759;28;20087;-74
2023/01/18 06:04:01;;;;;;;3.75;2.55;;;;;;;;;;5041786;28;20466;-74
2023/01/18 06:06:27;;;;;;;5.70;2.53;;;;;;;;;;5061719;28;20024;-74
2023/01/18 06:08:54;;;;;;;6.35;2.75;;;;;;;;;;5062511;28;20021;-74
2023/01/18 06:11:20;;;;;;;3.78;2.63;;;;;;;;;;5045293;28;20404;-74
2023/01/18 06:13:45;;;;;;;3.70;2.50;;;;;;;;;;5046583;28;20036;-73
2023/01/18 06:16:12;;;;;;;7.18;2.95;;;;;;;;;;5051050;28;20047;-72
2023/01/18 06:18:40;;;;;;;4.75;2.58;;;;;;;;;;5044297;28;20013;-74
2023/01/18 06:21:06;;;;;;;3.85;2.33;;;;;;;;;;5045549;28;20032;-74
2023/01/18 06:24:02;;;;;;;5.35;2.55;;;;;;;;;;5050805;28;20496;-74
2023/01/18 06:26:30;;;;;;;3.65;2.50;;;;;;;;;;5051617;28;20033;-74
2023/01/18 06:28:56;;;;;;;4.22;2.53;;;;;;;;;;5048508;28;20427;-74
2023/01/18 06:31:22;;;;;;;5.72;2.58;;;;;;;;;;5046232;28;20029;-74
2023/01/18 06:33:48;;;;;;;8.15;2.80;;;;;;;;;;5046649;28;20064;-74
2023/01/18 06:36:14;;;;;;;4.57;2.30;;;;;;;;;;5050240;28;20259;-74
2023/01/18 06:38:40;;;;;;;5.88;2.85;;;;;;;;;;5061368;28;20120;-74
2023/01/18 06:41:07;;;;;;;4.25;2.60;;;;;;;;;;5061480;28;20036;-74
2023/01/18 06:43:33;;;;;;;5.18;2.65;;;;;;;;;;5055024;28;20013;-74
2023/01/18 06:45:59;;;;;;;3.42;2.15;;;;;;;;;;5048925;28;20017;-75
2023/01/18 06:48:25;;;;;;;3.92;2.15;;;;;;;;;;5060424;28;20017;-74
2023/01/18 06:50:53;;;;;;;4.03;2.35;;;;;;;;;;5048839;28;20024;-74
2023/01/18 06:53:19;;;;;;;5.88;2.40;;;;;;;;;;5045759;28;20029;-74
2023/01/18 06:55:52;;;;;;;4.72;2.30;;;;;;;;;;5047413;28;20161;-74
2023/01/18 06:58:18;;;;;;;3.50;2.53;;;;;;;;;;5057467;28;20495;-75
2023/01/18 07:00:44;;;;;;;4.80;2.53;;;;;;;;;;5053498;28;20150;-75
2023/01/18 07:03:10;;;;;;;5.22;2.60;;;;;;;;;;5048163;28;20033;-74
2023/01/18 07:05:36;;;;;;;4.25;2.38;;;;;;;;;;5044332;28;20021;-75
2023/01/18 07:08:02;;;;;;;5.07;2.78;;;;;;;;;;5055797;28;20047;-75
2023/01/18 07:10:28;;;;;;;4.90;2.63;;;;;;;;;;5048479;28;20025;-74
2023/01/18 07:12:54;;;;;;;6.75;3.00;;;;;;;;;;5051716;28;20390;-75
2023/01/18 07:15:20;;;;;;;7.85;3.08;;;;;;;;;;5058818;28;20032;-75
2023/01/18 07:17:46;;;;;;;7.85;3.30;;;;;;;;;;5049996;28;20036;-74
2023/01/18 07:20:14;;;;;;;6.00;2.75;;;;;;;;;;5053638;28;20071;-75
2023/01/18 07:22:40;;;;;;;4.65;2.55;;;;;;;;;;5054659;28;20025;-74
2023/01/18 07:25:07;;;;;;;4.13;2.35;;;;;;;;;;5050393;28;20029;-74
2023/01/18 07:27:32;;;;;;;6.32;2.58;;;;;;;;;;5051604;28;20477;-74
2023/01/18 07:29:59;;;;;;;3.67;2.33;;;;;;;;;;5057538;28;20032;-74
2023/01/18 07:32:25;;;;;;;5.63;2.80;;;;;;;;;;5056234;28;20016;-74
2023/01/18 07:34:51;;;;;;;4.10;2.40;;;;;;;;;;5049235;28;20495;-75
2023/01/18 07:37:16;;;;;;;3.60;2.25;;;;;;;;;;5049275;28;20484;-73
2023/01/18 07:39:42;;;;;;;6.63;2.65;;;;;;;;;;5052353;28;20040;-73
2023/01/18 07:42:08;;;;;;;4.65;2.65;;;;;;;;;;5051376;28;20028;-74
2023/01/18 07:44:34;;;;;;;4.75;2.63;;;;;;;;;;5065305;28;20021;-74
2023/01/18 07:47:00;;;;;;;5.40;2.28;;;;;;;;;;5053008;28;20021;-74
2023/01/18 07:49:44;;;;;;;4.10;2.58;;;;;;;;;;5050432;28;20025;-74
2023/01/18 07:52:09;;;;;;;5.90;2.63;;;;;;;;;;5058763;28;20542;-73
2023/01/18 07:54:35;;;;;;;5.55;2.83;;;;;;;;;;5050327;28;20029;-73
2023/01/18 07:57:01;;;;;;;5.32;2.53;;;;;;;;;;5051742;28;20017;-73
2023/01/18 07:59:29;;;;;;;3.63;2.05;;;;;;;;;;5050498;28;20071;-73
2023/01/18 08:01:55;;;;;;;4.85;2.40;;;;;;;;;;5052727;28;20039;-73
2023/01/18 08:04:21;;;;;;;4.18;2.22;;;;;;;;;;5057191;28;20103;-73
2023/01/18 08:06:47;;;;;;;2.90;1.75;;;;;;;;;;5048858;28;20422;-73
2023/01/18 08:09:13;;;;;;;3.28;2.17;;;;;;;;;;5053942;28;20021;-73
2023/01/18 08:11:39;;;;;;;3.40;1.85;;;;;;;;;;5051652;28;20102;-73
2023/01/18 08:14:05;;;;;;;2.78;2.03;;;;;;;;;;5064151;28;20020;-73
2023/01/18 08:16:31;;;;;;;3.83;2.00;;;;;;;;;;5059428;28;20380;-73
2023/01/18 08:18:57;;;;;;;2.85;1.90;;;;;;;;;;5050339;28;20048;-73
2023/01/18 08:21:23;;;;;;;2.90;2.00;;;;;;;;;;5050482;28;20025;-74
2023/01/18 08:23:52;;;;;;;3.90;2.03;;;;;;;;;;5055827;28;20058;-75
2023/01/18 08:26:18;;;;;;;3.70;2.13;;;;;;;;;;5048236;28;20025;-72
2023/01/18 08:28:44;;;;;;;4.22;2.20;;;;;;;;;;5058273;28;20016;-74
2023/01/18 08:31:18;;;;;;;2.65;1.95;;;;;;;;;;5052308;28;20028;-74
2023/01/18 08:33:46;;;;;;;3.50;2.10;;;;;;;;;;5059424;28;20021;-82
2023/01/18 08:36:13;;;;;;;4.68;2.05;;;;;;;;;;5054367;28;20032;-74
2023/01/18 08:38:39;;;;;;;6.13;2.22;;;;;;;;;;5047594;28;20021;-76
2023/01/18 08:41:06;;;;;;;4.32;2.40;;;;;;;;;;5047145;28;20036;-74
2023/01/18 08:43:32;;;;;;;4.47;1.92;;;;;;;;;;5050723;28;20025;-74
2023/01/18 08:45:58;;;;;;;2.50;1.77;;;;;;;;;;5054289;28;20033;-76
2023/01/18 08:48:24;;;;;;;4.70;2.13;;;;;;;;;;5048846;28;20025;-76
2023/01/18 08:50:50;;;;;;;3.25;2.20;;;;;;;;;;5061726;28;20032;-77
2023/01/18 08:53:16;;;;;;;4.43;2.30;;;;;;;;;;5053976;28;20532;-76
2023/01/18 08:55:42;;;;;;;4.55;1.80;;;;;;;;;;5048386;28;20032;-76
2023/01/18 08:58:08;;;;;;;3.55;2.20;;;;;;;;;;5049614;28;20054;-76
2023/01/18 09:00:34;;;;;;;2.28;1.80;;;;;;;;;;5049385;28;20075;-76
2023/01/18 09:03:01;;;;;;;3.75;1.55;;;;;;;;;;5054096;28;20118;-76
2023/01/18 09:05:27;;;;;;;3.08;1.92;;;;;;;;;;5047819;28;20040;-76
2023/01/18 09:07:54;;;;;;;4.53;2.00;;;;;;;;;;5054767;28;20120;-76
2023/01/18 09:10:21;;;;;;;3.53;2.38;;;;;;;;;;5048806;28;20041;-76
2023/01/18 09:12:47;;;;;;;2.22;1.50;;;;;;;;;;5047587;28;20104;-77
2023/01/18 09:15:13;;;;;;;2.10;1.80;;;;;;;;;;5057444;28;20388;-77
2023/01/18 09:17:39;;;;;;;4.10;1.70;;;;;;;;;;5052519;28;20132;-76
2023/01/18 09:20:10;;;;;;;2.70;1.95;;;;;;;;;;5054123;28;20037;-76
2023/01/18 09:22:37;;;;;;;2.55;1.80;;;;;;;;;;5055483;28;20021;-76
2023/01/18 09:25:04;;;;;;;2.70;1.48;;;;;;;;;;5046858;28;20475;-77
2023/01/18 09:27:30;;;;;;;2.80;1.73;;;;;;;;;;5045973;28;20017;-74
2023/01/18 09:29:56;;;;;;;3.83;1.75;;;;;;;;;;5047703;28;20040;-75
2023/01/18 09:32:24;;;;;;;2.53;1.48;;;;;;;;;;5055057;28;20054;-74
2023/01/18 09:34:50;;;;;;;2.38;1.65;;;;;;;;;;5061955;28;20074;-74
2023/01/18 09:37:16;;;;;;;1.88;1.50;;;;;;;;;;5051105;28;20028;-73
2023/01/18 09:39:43;;;;;;;2.83;1.40;;;;;;;;;;5048478;28;20045;-74
2023/01/18 09:42:16;;;;;;;3.08;1.73;;;;;;;;;;5049356;28;20048;-75
2023/01/18 09:44:44;;;;;;;3.58;1.60;;;;;;;;;;5050578;28;20033;-73
2023/01/18 09:47:12;;;;;;;2.88;1.40;;;;;;;;;;5051293;28;20030;-74
2023/01/18 09:49:45;;;;;;;1.60;1.40;;;;;;;;;;5047106;28;20051;-73
2023/01/18 09:52:24;;;;;;;1.67;1.38;;;;;;;;;;5050786;28;20389;-74
2023/01/18 09:54:59;;;;;;;2.55;1.52;;;;;;;;;;5053803;28;20099;-75
2023/01/18 09:57:37;;;;;;;2.83;1.60;;;;;;;;;;5047968;28;20040;-75
2023/01/18 10:00:04;;;;;;;1.95;1.30;;;;;;;;;;5055785;28;20016;-76
2023/01/18 10:02:38;;;;;;;1.85;1.38;;;;;;;;;;5048379;28;20029;-74
2023/01/18 10:05:10;;;;;;;1.88;1.20;;;;;;;;;;5060968;28;20033;-75
2023/01/18 10:07:44;;;;;;;2.17;1.30;;;;;;;;;;5050401;28;20036;-75
2023/01/18 10:10:14;;;;;;;3.00;1.77;;;;;;;;;;5046650;28;20174;-76
2023/01/18 10:12:46;;;;;;;1.38;1.15;;;;;;;;;;5053999;28;20129;-76
2023/01/18 10:15:19;;;;;;;2.03;1.40;;;;;;;;;;5051265;28;20035;-76
2023/01/18 10:17:45;;;;;;;3.10;1.77;;;;;;;;;;5058173;28;20485;-76
2023/01/18 10:20:15;;;;;;;2.67;1.30;;;;;;;;;;5062246;28;20029;-76
2023/01/18 10:22:54;;;;;;;2.28;1.35;;;;;;;;;;5063408;28;20132;-76
2023/01/18 10:25:37;;;;;;;2.08;1.60;;;;;;;;;;5047913;28;20032;-76
2023/01/18 10:28:03;;;;;;;2.20;1.40;;;;;;;;;;5050112;28;20510;-76
2023/01/18 10:30:38;;;;;;;2.38;1.35;;;;;;;;;;5048477;28;20095;-76
2023/01/18 10:33:14;;;;;;;2.58;1.38;;;;;;;;;;5047363;28;20054;-76
2023/01/18 10:35:44;;;;;;;2.72;1.60;;;;;;;;;;5052470;28;20104;-76
2023/01/18 10:38:12;;;;;;;2.97;1.40;;;;;;;;;;5068732;28;20020;-76
2023/01/18 10:40:39;;;;;;;3.10;1.67;;;;;;;;;;5062690;28;20470;-76
2023/01/18 10:43:09;;;;;;;2.90;1.27;;;;;;;;;;5058754;28;20032;-77
2023/01/18 10:45:35;;;;;;;1.55;1.30;;;;;;;;;;5066323;28;20021;-76
2023/01/18 10:48:19;;;;;;;3.88;1.20;;;;;;;;;;5053391;28;20039;-76
2023/01/18 10:50:49;;;;;;;2.13;1.20;;;;;;;;;;5053728;28;20498;-75
2023/01/18 10:53:20;;;;;;;1.60;1.10;;;;;;;;;;5057381;28;20443;-76
2023/01/18 10:55:58;;;;;;;2.72;1.40;;;;;;;;;;5051350;28;20028;-77
2023/01/18 10:58:26;;;;;;;2.65;1.50;;;;;;;;;;5051691;28;20035;-76
2023/01/18 11:00:53;;;;;;;2.00;1.08;;;;;;;;;;5056047;28;20587;-77
2023/01/18 11:03:20;;;;;;;1.90;1.10;;;;;;;;;;5059511;28;20679;-76
2023/01/18 11:05:46;;;;;;;1.63;1.17;;;;;;;;;;5059610;28;20103;-76
2023/01/18 11:08:14;;;;;;;2.92;1.35;;;;;;;;;;5062341;28;20023;-75
2023/01/18 11:10:40;;;;;;;1.88;1.30;;;;;;;;;;5050949;28;20017;-76
2023/01/18 11:13:26;;;;;;;3.22;1.30;;;;;;;;;;5050990;28;20056;-76
2023/01/18 11:16:08;;;;;;;2.75;1.30;;;;;;;;;;5057239;28;20504;-76
2023/01/18 11:18:34;;;;;;;1.67;1.33;;;;;;;;;;5049752;28;20052;-76
2023/01/18 11:21:01;;;;;;;1.70;1.20;;;;;;;;;;5055374;28;20075;-76
2023/01/18 11:23:30;;;;;;;1.35;1.00;;;;;;;;;;5054574;28;20942;-74
2023/01/18 11:26:00;;;;;;;1.77;1.30;;;;;;;;;;5051305;28;20028;-73
2023/01/18 11:28:38;;;;;;;2.25;1.27;;;;;;;;;;5047796;28;20044;-74
2023/01/18 11:31:09;;;;;;;1.80;1.10;;;;;;;;;;5047767;28;20547;-74
2023/01/18 11:33:39;;;;;;;1.35;1.15;;;;;;;;;;5048743;28;20547;-74
2023/01/18 11:36:05;;;;;;;3.38;1.42;;;;;;;;;;5048913;28;20195;-73
2023/01/18 11:38:33;;;;;;;1.42;1.17;;;;;;;;;;5056940;28;20029;-73
2023/01/18 11:41:22;;;;;;;2.22;1.35;;;;;;;;;;5068965;28;20029;-74
2023/01/18 11:44:12;;;;;;;1.63;1.05;;;;;;;;;;5047131;28;20633;-74
2023/01/18 11:47:05;;;;;;;1.17;1.08;;;;;;;;;;5048968;28;20033;-74
2023/01/18 11:49:54;;;;;;;1.98;1.40;;;;;;;;;;5061144;28;20400;-74
2023/01/18 11:52:20;;;;;;;1.02;0.90;;;;;;;;;;5048773;28;20131;-75
2023/01/18 11:54:50;;;;;;;1.38;1.20;;;;;;;;;;5055177;28;20491;-74
2023/01/18 11:57:16;;;;;;;2.00;1.20;;;;;;;;;;5068800;28;20029;-74
2023/01/18 11:59:44;;;;;;;1.67;1.30;;;;;;;;;;5059945;28;20404;-74
2023/01/18 12:02:31;;;;;;;2.17;1.30;;;;;;;;;;5068979;28;20025;-74
2023/01/18 12:04:59;;;;;;;2.42;1.30;;;;;;;;;;5066135;28;20029;-73
2023/01/18 12:07:47;;;;;;;2.22;1.00;;;;;;;;;;5068980;28;20021;-74
2023/01/18 12:10:24;;;;;;;1.42;1.08;;;;;;;;;;5051040;28;20108;-74
2023/01/18 12:13:09;;;;;;;1.25;1.05;;;;;;;;;;5066098;28;20052;-74
2023/01/18 12:15:50;;;;;;;1.67;1.00;;;;;;;;;;5061627;28;20035;-74
2023/01/18 12:18:37;;;;;;;1.55;1.15;;;;;;;;;;5048040;28;20417;-74
2023/01/18 12:21:24;;;;;;;1.30;1.17;;;;;;;;;;5052785;28;20085;-73
2023/01/18 12:24:04;;;;;;;1.92;1.23;;;;;;;;;;5052577;28;20028;-73
2023/01/18 12:26:36;;;;;;;1.27;0.98;;;;;;;;;;5055597;28;20035;-73
2023/01/18 12:29:19;;;;;;;1.17;1.08;;;;;;;;;;5049577;28;20024;-71
2023/01/18 12:32:04;;;;;;;1.05;0.90;;;;;;;;;;5048037;28;20029;-71
2023/01/18 12:34:33;;;;;;;1.90;1.15;;;;;;;;;;5052656;28;20032;-71
2023/01/18 12:37:13;;;;;;;2.42;1.05;;;;;;;;;;5049275;28;20037;-76
2023/01/18 12:39:48;;;;;;;2.53;1.08;;;;;;;;;;5048999;28;20052;-76
2023/01/18 12:42:20;;;;;;;2.00;1.13;;;;;;;;;;5056571;28;20033;-75
2023/01/18 12:44:46;;;;;;;2.20;1.30;;;;;;;;;;5048802;28;20096;-76
2023/01/18 12:47:33;;;;;;;4.00;1.40;;;;;;;;;;5048357;28;20384;-76
2023/01/18 12:50:02;;;;;;;1.92;1.27;;;;;;;;;;5052112;28;20028;-76
2023/01/18 12:52:29;;;;;;;4.07;1.52;;;;;;;;;;5051333;28;20125;-76
2023/01/18 12:54:57;;;;;;;2.38;1.40;;;;;;;;;;5051655;28;20029;-76
2023/01/18 12:57:24;;;;;;;3.42;1.38;;;;;;;;;;5052772;28;20036;-76
2023/01/18 13:00:02;;;;;;;1.65;1.23;;;;;;;;;;5047111;28;20025;-75
2023/01/18 13:02:32;;;;;;;2.40;1.40;;;;;;;;;;5058971;28;20070;-76
2023/01/18 13:05:03;;;;;;;3.17;1.50;;;;;;;;;;5045070;28;20039;-76
2023/01/18 13:07:33;;;;;;;1.90;1.38;;;;;;;;;;5049673;28;20017;-76
2023/01/18 13:09:59;;;;;;;1.23;1.10;;;;;;;;;;5061383;28;20112;-76
2023/01/18 13:12:28;;;;;;;1.77;1.42;;;;;;;;;;5050003;28;20095;-76
2023/01/18 13:15:00;;;;;;;2.00;1.35;;;;;;;;;;5065353;28;20042;-76
2023/01/18 13:17:31;;;;;;;2.42;1.33;;;;;;;;;;5047166;28;20029;-75
2023/01/18 13:19:59;;;;;;;2.70;1.42;;;;;;;;;;5050653;28;20036;-76
2023/01/18 13:22:39;;;;;;;1.83;1.45;;;;;;;;;;5049629;28;20255;-74
2023/01/18 13:25:25;;;;;;;2.22;1.10;;;;;;;;;;5047664;28;20033;-77
2023/01/18 13:27:59;;;;;;;2.97;1.92;;;;;;;;;;5060151;28;20024;-75
2023/01/18 13:30:25;;;;;;;2.00;1.50;;;;;;;;;;5043291;28;20029;-74
2023/01/18 13:32:52;;;;;;;1.73;1.17;;;;;;;;;;5046365;28;20032;-74
2023/01/18 13:35:22;;;;;;;1.33;1.20;;;;;;;;;;5049046;28;20272;-74
2023/01/18 13:37:56;;;;;;;1.30;1.00;;;;;;;;;;5047748;28;20032;-75
2023/01/18 13:40:23;;;;;;;2.35;1.27;;;;;;;;;;5049594;28;20041;-74
2023/01/18 13:42:49;;;;;;;1.98;1.35;;;;;;;;;;5048048;28;20067;-73
2023/01/18 13:45:19;;;;;;;1.60;1.40;;;;;;;;;;5047067;28;20029;-74
2023/01/18 13:47:51;;;;;;;2.13;1.38;;;;;;;;;;5050714;28;20575;-74
2023/01/18 13:50:37;;;;;;;1.67;1.30;;;;;;;;;;5045357;28;20020;-75
2023/01/18 13:53:09;;;;;;;3.25;1.88;;;;;;;;;;5042321;28;20033;-74
2023/01/18 13:55:35;;;;;;;2.97;1.52;;;;;;;;;;5042448;28;20579;-74
2023/01/18 13:58:01;;;;;;;2.22;1.40;;;;;;;;;;5043736;28;20094;-74
2023/01/18 14:00:28;;;;;;;2.63;1.35;;;;;;;;;;5044343;28;20393;-75
2023/01/18 14:03:04;;;;;;;1.52;1.10;;;;;;;;;;5054486;28;20526;-74
2023/01/18 14:05:37;;;;;;;2.90;1.48;;;;;;;;;;5056510;28;20020;-75
2023/01/18 14:08:04;;;;;;;2.22;1.17;;;;;;;;;;5045262;28;20716;-75
2023/01/18 14:10:37;;;;;;;1.17;0.90;;;;;;;;;;5045432;28;20020;-74
2023/01/18 14:13:07;;;;;;;1.30;1.02;;;;;;;;;;5049948;28;20132;-75
2023/01/18 14:15:37;;;;;;;1.60;1.08;;;;;;;;;;5043687;28;20123;-75
2023/01/18 14:18:04;;;;;;;3.05;1.33;;;;;;;;;;5052250;28;20033;-75
2023/01/18 14:20:45;;;;;;;2.47;1.38;;;;;;;;;;5049282;28;20031;-72
2023/01/18 14:23:21;;;;;;;1.42;1.17;;;;;;;;;;5053242;28;20087;-74
2023/01/18 14:25:53;;;;;;;1.20;1.10;;;;;;;;;;5045718;28;20554;-77
2023/01/18 14:28:25;;;;;;;3.42;1.48;;;;;;;;;;5054668;28;20198;-74
2023/01/18 14:30:54;;;;;;;3.63;1.10;;;;;;;;;;5048364;28;20029;-73
2023/01/18 14:33:25;;;;;;;3.30;1.30;;;;;;;;;;5045269;28;20057;-74
2023/01/18 14:35:52;;;;;;;2.53;1.05;;;;;;;;;;5050925;28;20021;-73
2023/01/18 14:38:18;;;;;;;1.85;1.00;;;;;;;;;;5046927;28;20150;-74
2023/01/18 14:40:49;;;;;;;2.20;1.23;;;;;;;;;;5054312;28;20040;-73
2023/01/18 14:43:24;;;;;;;2.57;1.20;;;;;;;;;;5054164;28;20068;-72
2023/01/18 14:45:53;;;;;;;1.55;1.20;;;;;;;;;;5054941;28;20535;-74
2023/01/18 14:48:21;;;;;;;1.55;1.15;;;;;;;;;;5041811;28;20074;-74
2023/01/18 14:50:48;;;;;;;1.15;1.00;;;;;;;;;;5042808;28;20675;-73
2023/01/18 14:53:17;;;;;;;3.55;1.42;;;;;;;;;;5045310;28;20037;-76
2023/01/18 14:55:59;;;;;;;1.27;1.00;;;;;;;;;;5059371;28;20082;-73
2023/01/18 14:58:26;;;;;;;1.25;0.90;;;;;;;;;;5052463;28;20032;-73
2023/01/18 15:00:52;;;;;;;1.60;1.05;;;;;;;;;;5043783;28;20033;-73
2023/01/18 15:03:29;;;;;;;2.03;1.35;;;;;;;;;;5050686;28;20042;-74
2023/01/18 15:06:11;;;;;;;4.20;1.80;;;;;;;;;;5061833;28;20027;-73
2023/01/18 15:08:37;;;;;;;1.25;1.10;;;;;;;;;;5062815;28;20056;-74
2023/01/18 15:11:04;;;;;;;1.67;1.10;;;;;;;;;;5055115;28;20586;-75
2023/01/18 15:13:30;;;;;;;4.53;1.00;;;;;;;;;;5047192;28;20041;-74
2023/01/18 15:15:56;;;;;;;1.90;1.40;;;;;;;;;;5055119;28;20135;-71
2023/01/18 15:18:23;;;;;;;1.70;1.42;;;;;;;;;;5044190;28;20032;-76
2023/01/18 15:20:55;;;;;;;3.33;1.15;;;;;;;;;;5055643;28;20182;-73
2023/01/18 15:23:21;;;;;;;2.70;1.17;;;;;;;;;;5052524;28;20083;-78
2023/01/18 15:25:49;;;;;;;2.05;1.20;;;;;;;;;;5046460;28;20037;-78